EHTX weather

Texel Airfield
Texel, Noord-Holland, Netherlands

Public forecast

Using degrees Celsius for public forecast. Weather courtesy of forecast.io.

Closest aviation weather report (METAR) to Texel Airfield

Closest report is De Kooy Airport, 11.7 nm (21.6 km) S. Retrieved 2020/07/14 03:55 UTC (18 minutes ago):

EHKD 140355Z AUTO 23004KT 9999 SCT009 BKN010 OVC025 16/15 Q1015 GRN

Closest aviation forecast (TAF) to Texel Airfield

Closest forecast is De Kooy Airport, 11.7 nm (21.6 km) S. Retrieved 2020-07-14 01:06 UTC (3 hours ago):

TAF TAF EHKD 140020Z 1401/1413 24008KT 9999 BKN040 PROB40 1401/1405 SCT007 BKN020 BECMG 1403/1405 SCT015 BKN020 TEMPO 1405/1413 4800 -RADZ SCT010 BKN015 PROB40 TEMPO 1405/1413 3000 DZRA SCT007 BKN010